Time;durP1;ratioP1;P1;durP2;ratioP2;P2;SDS_P1;SDS_P2;PMS_P1;PMS_P2;Temp;Humidity;BMP_temperature;BMP_pressure;BME280_temperature;BME280_humidity;BME280_pressure;Samples;Min_cycle;Max_cycle;Signal;HPM_P1;HPM_P2
2023/08/11 00:01:02;;;;;;;;;;;;;;;15.80;43.64;101184.38;4907636;28;98628;-77
2023/08/11 00:03:33;;;;;;;;;;;;;;;15.78;43.61;101181.09;4886072;28;98561;-77
2023/08/11 00:05:59;;;;;;;;;;;;;;;15.74;43.36;101180.06;4883360;28;100788;-71
2023/08/11 00:08:26;;;;;;;;;;;;;;;15.73;43.45;101183.88;4900597;28;98325;-71
2023/08/11 00:10:56;;;;;;;;;;;;;;;15.70;43.63;101187.16;4895884;28;99324;-77
2023/08/11 00:13:22;;;;;;;;;;;;;;;15.65;43.62;101181.75;4900118;28;99014;-71
2023/08/11 00:15:52;;;;;;;;;;;;;;;15.63;43.35;101189.34;4897781;28;98135;-77
2023/08/11 00:18:24;;;;;;;;;;;;;;;15.62;43.72;101185.81;4897487;28;98574;-77
2023/08/11 00:20:51;;;;;;;;;;;;;;;15.60;43.48;101181.75;4900526;28;97770;-71
2023/08/11 00:23:19;;;;;;;;;;;;;;;15.60;43.58;101179.03;4869428;28;97836;-77
2023/08/11 00:25:46;;;;;;;;;;;;;;;15.59;43.59;101186.38;4893413;28;98633;-77
2023/08/11 00:28:14;;;;;;;;;;;;;;;15.60;43.80;101185.31;4892004;28;97948;-77
2023/08/11 00:30:42;;;;;;;;;;;;;;;15.60;43.63;101181.75;4895229;28;98702;-71
2023/08/11 00:33:08;;;;;;;;;;;;;;;15.58;43.68;101192.91;4922696;28;98088;-71
2023/08/11 00:35:35;;;;;;;;;;;;;;;15.59;43.66;101186.38;4891732;28;97879;-71
2023/08/11 00:38:06;;;;;;;;;;;;;;;15.60;43.71;101185.31;4891216;28;99386;-77
2023/08/11 00:40:33;;;;;;;;;;;;;;;15.60;43.55;101190.75;4922286;28;100588;-71
2023/08/11 00:43:01;;;;;;;;;;;;;;;15.62;43.79;101183.09;4904589;28;98198;-77
2023/08/11 00:45:30;;;;;;;;;;;;;;;15.63;43.96;101179.28;4892435;28;98219;-77
2023/08/11 00:47:59;;;;;;;;;;;;;;;15.63;43.66;101170.31;4925109;28;98314;-77
2023/08/11 00:50:27;;;;;;;;;;;;;;;15.65;43.78;101187.19;4890110;28;98263;-78
2023/08/11 00:52:53;;;;;;;;;;;;;;;15.64;43.65;101183.66;4909548;28;98674;-71
2023/08/11 00:55:23;;;;;;;;;;;;;;;15.63;43.43;101181.19;4892945;28;98382;-77
2023/08/11 00:57:52;;;;;;;;;;;;;;;15.63;43.71;101182.00;4908809;28;98976;-77
2023/08/11 01:00:19;;;;;;;;;;;;;;;15.63;43.73;101176.56;4927206;28;98252;-71
2023/08/11 01:02:46;;;;;;;;;;;;;;;15.62;43.56;101169.50;4906006;28;100538;-72
2023/08/11 01:05:17;;;;;;;;;;;;;;;15.64;43.77;101169.22;4919948;28;98639;-71
2023/08/11 01:08:04;;;;;;;;;;;;;;;15.63;43.56;101164.88;4923035;28;97940;-77
2023/08/11 01:11:06;;;;;;;;;;;;;;;15.62;43.80;101164.09;4921815;28;98934;-77
2023/08/11 01:13:35;;;;;;;;;;;;;;;15.61;43.52;101175.25;4876187;28;98398;-78
2023/08/11 01:16:04;;;;;;;;;;;;;;;15.60;43.89;101177.16;4918559;28;98959;-77
2023/08/11 01:18:31;;;;;;;;;;;;;;;15.59;43.51;101170.06;4868561;28;102199;-71
2023/08/11 01:21:06;;;;;;;;;;;;;;;15.60;43.73;101171.72;4869998;28;98155;-71
2023/08/11 01:23:35;;;;;;;;;;;;;;;15.58;43.63;101173.91;4919324;28;98061;-77
2023/08/11 01:26:04;;;;;;;;;;;;;;;15.58;43.63;101175.81;4874039;28;98300;-77
2023/08/11 01:28:35;;;;;;;;;;;;;;;15.58;43.52;101175.81;4926110;28;98101;-78
2023/08/11 01:31:03;;;;;;;;;;;;;;;15.58;43.60;101175.81;4891256;28;97843;-78
2023/08/11 01:33:29;;;;;;;;;;;;;;;15.59;43.48;101175.50;4917880;28;98314;-72
2023/08/11 01:35:56;;;;;;;;;;;;;;;15.59;43.61;101178.22;4898206;28;98280;-71
2023/08/11 01:38:24;;;;;;;;;;;;;;;15.59;43.74;101175.50;4919725;28;98516;-77
2023/08/11 01:40:53;;;;;;;;;;;;;;;15.58;43.58;101167.66;4901938;28;101340;-71
2023/08/11 01:43:21;;;;;;;;;;;;;;;15.57;43.57;101172.28;4891417;28;98146;-77
2023/08/11 01:45:48;;;;;;;;;;;;;;;15.54;43.90;101177.47;4922330;28;98048;-71
2023/08/11 01:48:16;;;;;;;;;;;;;;;15.52;43.76;101172.31;4892282;28;98240;-72
2023/08/11 01:50:45;;;;;;;;;;;;;;;15.51;43.81;101178.03;4908410;28;100084;-77
2023/08/11 01:53:11;;;;;;;;;;;;;;;15.47;43.87;101173.16;4905613;28;98355;-72
2023/08/11 01:55:38;;;;;;;;;;;;;;;15.45;43.69;101172.63;4923680;28;99728;-72
2023/08/11 01:58:06;;;;;;;;;;;;;;;15.43;43.59;101176.72;4903227;28;98385;-77
2023/08/11 02:00:34;;;;;;;;;;;;;;;15.38;43.74;101172.16;4903631;28;98368;-77
2023/08/11 02:03:03;;;;;;;;;;;;;;;15.34;43.70;101167.56;4921673;28;98019;-71
2023/08/11 02:05:33;;;;;;;;;;;;;;;15.32;43.91;101175.16;4925985;28;98063;-77
2023/08/11 02:08:04;;;;;;;;;;;;;;;15.28;43.57;101176.81;4893678;28;98466;-77
2023/08/11 02:10:33;;;;;;;;;;;;;;;15.25;43.67;101174.66;4900350;28;98184;-76
2023/08/11 02:13:09;;;;;;;;;;;;;;;15.22;43.79;101178.78;4904408;28;98792;-77
2023/08/11 02:15:36;;;;;;;;;;;;;;;15.19;43.93;101173.91;4902700;28;98512;-73
2023/08/11 02:18:04;;;;;;;;;;;;;;;15.18;44.04;101180.44;4870088;28;98035;-72
2023/08/11 02:20:32;;;;;;;;;;;;;;;15.17;43.97;101176.09;4903628;28;98344;-72
2023/08/11 02:23:02;;;;;;;;;;;;;;;15.17;43.74;101178.81;4877396;28;99282;-77
2023/08/11 02:25:29;;;;;;;;;;;;;;;15.17;43.93;101184.25;4892596;28;98217;-72
2023/08/11 02:27:57;;;;;;;;;;;;;;;15.15;43.71;101189.13;4905803;28;98660;-77
2023/08/11 02:30:29;;;;;;;;;;;;;;;15.13;44.02;101178.56;4904699;28;98332;-72
2023/08/11 02:32:56;;;;;;;;;;;;;;;15.12;43.78;101184.25;4919621;28;97898;-72
2023/08/11 02:35:23;;;;;;;;;;;;;;;15.10;44.05;101187.25;4906946;28;98378;-71
2023/08/11 02:37:49;;;;;;;;;;;;;;;15.07;44.05;101190.53;4920275;28;98207;-72
2023/08/11 02:40:19;;;;;;;;;;;;;;;15.03;43.88;101189.47;4887517;28;98984;-71
2023/08/11 02:42:58;;;;;;;;;;;;;;;15.01;43.91;101191.63;4908268;28;98501;-77
2023/08/11 02:45:27;;;;;;;;;;;;;;;14.97;44.14;101199.56;4905918;28;98589;-76
2023/08/11 02:47:58;;;;;;;;;;;;;;;14.95;44.01;101198.19;4865848;28;98268;-77
2023/08/11 02:50:24;;;;;;;;;;;;;;;14.91;44.15;101203.38;4886135;28;98694;-71
2023/08/11 02:52:52;;;;;;;;;;;;;;;14.88;44.19;101203.91;4924758;28;98470;-77
2023/08/11 02:55:19;;;;;;;;;;;;;;;14.86;44.07;101203.41;4922556;28;98174;-72
2023/08/11 02:57:47;;;;;;;;;;;;;;;14.84;44.16;101208.28;4897572;28;98378;-77
2023/08/11 03:00:15;;;;;;;;;;;;;;;14.82;44.19;101204.22;4875759;28;100005;-77
2023/08/11 03:02:42;;;;;;;;;;;;;;;14.80;43.93;101212.63;4906716;28;97978;-72
2023/08/11 03:05:09;;;;;;;;;;;;;;;14.76;44.17;101206.13;4902393;28;98005;-71
2023/08/11 03:07:49;;;;;;;;;;;;;;;14.72;43.79;101205.06;5043181;27;98507;-72
2023/08/11 03:10:16;;;;;;;;;;;;;;;14.67;44.10;101205.09;4999730;27;98301;-71
2023/08/11 03:12:42;;;;;;;;;;;;;;;14.60;43.88;101213.53;4988871;27;98997;-70
2023/08/11 03:15:10;;;;;;;;;;;;;;;14.55;43.82;101210.03;4982883;27;97922;-76
2023/08/11 03:17:38;;;;;;;;;;;;;;;14.51;44.35;101212.47;4973922;27;98312;-72
2023/08/11 03:20:24;;;;;;;;;;;;;;;14.46;44.30;101221.41;4988158;27;98361;-71
2023/08/11 03:22:50;;;;;;;;;;;;;;;14.40;43.94;101217.06;4994185;27;98597;-71
2023/08/11 03:25:19;;;;;;;;;;;;;;;14.38;44.42;101213.84;4971705;27;98574;-77
2023/08/11 03:27:45;;;;;;;;;;;;;;;14.32;44.33;101216.81;4966593;27;100179;-78
2023/08/11 03:30:12;;;;;;;;;;;;;;;14.27;44.14;101214.94;4972553;27;98068;-72
2023/08/11 03:32:39;;;;;;;;;;;;;;;14.23;44.26;101224.69;4991397;27;98692;-77
2023/08/11 03:35:06;;;;;;;;;;;;;;;14.20;44.24;101225.25;4974310;27;97982;-72
2023/08/11 03:37:34;;;;;;;;;;;;;;;14.16;43.90;101222.25;4971917;27;98523;-77
2023/08/11 03:40:07;;;;;;;;;;;;;;;14.15;44.20;101219.84;4978321;27;98237;-77
2023/08/11 03:42:33;;;;;;;;;;;;;;;14.14;44.25;101226.31;4990977;27;98142;-73
2023/08/11 03:45:00;;;;;;;;;;;;;;;14.13;44.21;101224.69;4972429;27;98292;-78
2023/08/11 03:47:26;;;;;;;;;;;;;;;14.14;44.07;101215.47;4989097;27;98488;-73
2023/08/11 03:49:56;;;;;;;;;;;;;;;14.13;44.34;101217.38;4971855;27;98255;-77
2023/08/11 03:52:24;;;;;;;;;;;;;;;14.11;44.43;101226.84;4972655;27;100130;-72
2023/08/11 03:54:51;;;;;;;;;;;;;;;14.12;44.40;101229.31;4967871;27;98340;-73
2023/08/11 03:57:18;;;;;;;;;;;;;;;14.16;44.27;101232.28;4967732;27;98478;-73
2023/08/11 03:59:45;;;;;;;;;;;;;;;14.15;44.27;101226.06;4968681;27;98317;-77
2023/08/11 04:02:11;;;;;;;;;;;;;;;14.16;43.92;101229.59;4981697;27;98558;-77
2023/08/11 04:04:38;;;;;;;;;;;;;;;14.17;44.16;101228.50;4969548;27;98432;-76
2023/08/11 04:07:05;;;;;;;;;;;;;;;14.19;43.92;101235.28;4964411;27;98486;-72
2023/08/11 04:09:33;;;;;;;;;;;;;;;14.19;44.26;101238.00;4968566;27;98173;-72
2023/08/11 04:11:59;;;;;;;;;;;;;;;14.19;44.05;101229.03;4972802;27;98126;-72
2023/08/11 04:14:26;;;;;;;;;;;;;;;14.20;43.95;101230.66;4964008;27;112446;-72
2023/08/11 04:16:52;;;;;;;;;;;;;;;14.21;43.69;101235.00;4967566;27;98259;-72
2023/08/11 04:19:19;;;;;;;;;;;;;;;14.25;43.84;101231.47;4953306;27;98458;-73
2023/08/11 04:21:53;;;;;;;;;;;;;;;14.26;44.25;101232.25;4958303;27;98529;-78
2023/08/11 04:24:19;;;;;;;;;;;;;;;14.27;44.30;101233.91;4976629;27;98291;-77
2023/08/11 04:26:47;;;;;;;;;;;;;;;14.27;43.88;101228.50;4963834;27;98403;-73
2023/08/11 04:29:13;;;;;;;;;;;;;;;14.28;43.99;101235.53;4953999;27;99595;-72
2023/08/11 04:31:40;;;;;;;;;;;;;;;14.30;43.89;101227.91;4972655;27;97951;-73
2023/08/11 04:34:10;;;;;;;;;;;;;;;14.35;44.15;101235.25;4961320;27;99251;-73
2023/08/11 04:36:37;;;;;;;;;;;;;;;14.37;43.94;101233.06;4959142;27;98715;-72
2023/08/11 04:39:05;;;;;;;;;;;;;;;14.38;43.83;101242.81;4957459;27;97876;-72
2023/08/11 04:41:36;;;;;;;;;;;;;;;14.42;44.11;101238.47;4953486;27;100002;-77
2023/08/11 04:44:04;;;;;;;;;;;;;;;14.45;43.98;101233.31;4970441;27;99626;-72
2023/08/11 04:46:36;;;;;;;;;;;;;;;14.48;43.81;101224.63;4972517;27;98406;-77
2023/08/11 04:49:02;;;;;;;;;;;;;;;14.51;44.17;101234.16;4948170;27;98147;-72
2023/08/11 04:51:29;;;;;;;;;;;;;;;14.52;44.08;101243.94;4951320;27;108846;-72
2023/08/11 04:54:00;;;;;;;;;;;;;;;14.56;44.11;101241.47;4956670;27;100316;-76
2023/08/11 04:56:27;;;;;;;;;;;;;;;14.61;44.10;101249.59;4956080;27;98133;-72
2023/08/11 04:58:57;;;;;;;;;;;;;;;14.64;43.95;101233.59;4956245;27;98310;-77
2023/08/11 05:01:24;;;;;;;;;;;;;;;14.68;44.11;101244.69;4974406;27;98055;-73
2023/08/11 05:03:50;;;;;;;;;;;;;;;14.70;44.15;101237.91;4958418;27;98177;-76
2023/08/11 05:06:19;;;;;;;;;;;;;;;14.76;44.03;101241.41;4968464;27;97938;-77
2023/08/11 05:08:47;;;;;;;;;;;;;;;14.83;44.06;101260.13;4953112;27;97987;-72
2023/08/11 05:11:13;;;;;;;;;;;;;;;14.87;43.82;101253.88;4968068;27;98091;-72
2023/08/11 05:13:40;;;;;;;;;;;;;;;14.93;43.79;101254.66;4970672;27;98182;-72
2023/08/11 05:16:06;;;;;;;;;;;;;;;15.00;43.82;101263.31;4949841;27;98703;-72
2023/08/11 05:18:34;;;;;;;;;;;;;;;15.07;43.86;101269.25;4954804;28;98279;-73
2023/08/11 05:21:01;;;;;;;;;;;;;;;15.14;43.73;101269.78;4952823;27;98147;-77
2023/08/11 05:23:30;;;;;;;;;;;;;;;15.20;43.65;101273.28;4954603;27;99700;-77
2023/08/11 05:25:59;;;;;;;;;;;;;;;15.27;43.84;101272.97;4954763;27;98664;-77
2023/08/11 05:28:26;;;;;;;;;;;;;;;15.36;43.87;101274.81;4956099;27;98941;-77
2023/08/11 05:30:56;;;;;;;;;;;;;;;15.50;43.56;101275.03;4953849;27;98319;-77
2023/08/11 05:33:23;;;;;;;;;;;;;;;15.65;43.53;101272.25;4948449;27;98651;-72
2023/08/11 05:35:51;;;;;;;;;;;;;;;15.71;43.47;101273.81;4947363;27;98777;-77
2023/08/11 05:38:21;;;;;;;;;;;;;;;15.77;43.69;101262.94;4969551;27;100042;-72
2023/08/11 05:40:48;;;;;;;;;;;;;;;15.84;43.63;101272.41;4945438;27;99904;-73
2023/08/11 05:43:15;;;;;;;;;;;;;;;15.92;43.41;101277.22;4949820;27;98732;-77
2023/08/11 05:45:42;;;;;;;;;;;;;;;16.07;43.50;101278.19;4948514;27;98294;-72
2023/08/11 05:48:09;;;;;;;;;;;;;;;16.19;43.31;101276.75;4941549;27;98030;-77
2023/08/11 05:50:36;;;;;;;;;;;;;;;16.36;43.20;101278.22;4946679;27;98256;-72
2023/08/11 05:53:03;;;;;;;;;;;;;;;16.55;43.13;101281.84;4950390;27;100414;-72
2023/08/11 05:55:30;;;;;;;;;;;;;;;16.79;42.99;101268.28;4960683;27;98538;-72
2023/08/11 05:57:56;;;;;;;;;;;;;;;17.03;42.79;101281.09;4950084;27;98263;-73
2023/08/11 06:00:24;;;;;;;;;;;;;;;17.23;42.80;101274.56;4950069;27;98758;-73
2023/08/11 06:02:50;;;;;;;;;;;;;;;17.42;42.75;101270.75;4948196;27;99734;-72
2023/08/11 06:05:18;;;;;;;;;;;;;;;17.61;42.67;101275.41;4962822;27;99089;-72
2023/08/11 06:07:49;;;;;;;;;;;;;;;17.88;42.63;101278.28;4965778;27;98566;-77
2023/08/11 06:10:17;;;;;;;;;;;;;;;18.18;42.35;101267.19;4946244;27;98310;-77
2023/08/11 06:12:44;;;;;;;;;;;;;;;18.55;41.96;101269.78;4945165;27;98822;-76
2023/08/11 06:15:12;;;;;;;;;;;;;;;18.95;41.85;101263.88;4963763;27;98201;-72
2023/08/11 06:17:40;;;;;;;;;;;;;;;19.36;41.48;101266.53;4966397;27;98514;-76
2023/08/11 06:20:10;;;;;;;;;;;;;;;19.71;41.27;101267.69;4954892;27;99959;-77
2023/08/11 06:22:37;;;;;;;;;;;;;;;20.00;41.40;101269.16;4950791;27;98553;-77
2023/08/11 06:25:06;;;;;;;;;;;;;;;20.06;41.64;101270.69;4947120;27;98395;-71
2023/08/11 06:27:33;;;;;;;;;;;;;;;20.05;41.83;101272.59;4944664;27;98417;-76
2023/08/11 06:29:59;;;;;;;;;;;;;;;19.95;42.09;101280.25;4946616;27;98064;-72
2023/08/11 06:32:26;;;;;;;;;;;;;;;19.88;42.27;101285.34;4946058;27;100242;-71
2023/08/11 06:34:54;;;;;;;;;;;;;;;19.89;42.20;101284.25;4950286;27;98263;-72
2023/08/11 06:37:21;;;;;;;;;;;;;;;19.93;42.45;101286.03;4950818;27;98739;-72
2023/08/11 06:39:54;;;;;;;;;;;;;;;19.99;42.26;101294.91;4949648;27;98296;-77
2023/08/11 06:42:20;;;;;;;;;;;;;;;20.11;42.21;101293.22;4959437;27;98548;-76
2023/08/11 06:44:48;;;;;;;;;;;;;;;20.08;42.46;101299.34;4947154;27;98613;-72
2023/08/11 06:47:18;;;;;;;;;;;;;;;20.67;41.84;101304.72;4943179;27;98329;-77
2023/08/11 06:49:46;;;;;;;;;;;;;;;21.39;41.12;101299.97;4968263;27;98081;-77
2023/08/11 06:52:14;;;;;;;;;;;;;;;22.04;40.85;101301.75;4946302;27;98874;-77
2023/08/11 06:54:43;;;;;;;;;;;;;;;22.78;40.60;101303.38;4948259;27;98433;-71
2023/08/11 06:57:10;;;;;;;;;;;;;;;23.90;39.58;101301.09;4961497;27;98102;-71
2023/08/11 06:59:38;;;;;;;;;;;;;;;24.49;39.51;101312.69;4949751;27;98461;-71
2023/08/11 07:02:06;;;;;;;;;;;;;;;25.13;39.02;101307.69;4950943;27;98452;-71
2023/08/11 07:04:35;;;;;;;;;;;;;;;26.16;38.31;101310.75;4965695;27;98276;-76
2023/08/11 07:07:04;;;;;;;;;;;;;;;26.41;38.37;101311.44;4967662;27;99368;-76
2023/08/11 07:09:32;;;;;;;;;;;;;;;26.53;38.73;101315.31;4946231;27;98707;-71
2023/08/11 07:12:00;;;;;;;;;;;;;;;26.93;38.56;101318.69;4945801;27;97977;-76
2023/08/11 07:14:28;;;;;;;;;;;;;;;27.01;38.81;101322.44;4943616;27;98110;-77
2023/08/11 07:16:55;;;;;;;;;;;;;;;27.43;38.48;101324.59;4962395;27;98463;-76
2023/08/11 07:19:22;;;;;;;;;;;;;;;27.48;38.74;101327.09;4948703;27;99248;-71
2023/08/11 07:21:49;;;;;;;;;;;;;;;27.35;39.07;101320.91;4953355;27;98481;-71
2023/08/11 07:24:17;;;;;;;;;;;;;;;27.32;39.34;101324.38;4947352;27;99804;-71
2023/08/11 07:26:44;;;;;;;;;;;;;;;27.86;38.55;101326.38;4950544;27;99525;-71
2023/08/11 07:29:11;;;;;;;;;;;;;;;28.70;38.27;101332.31;4948374;27;98053;-77
2023/08/11 07:31:39;;;;;;;;;;;;;;;29.27;38.03;101334.03;4945615;27;98522;-78
2023/08/11 07:34:06;;;;;;;;;;;;;;;29.79;37.61;101334.34;4945175;27;98001;-77
2023/08/11 07:36:33;;;;;;;;;;;;;;;30.26;37.39;101330.16;4956908;27;97984;-76
2023/08/11 07:39:00;;;;;;;;;;;;;;;30.71;37.18;101319.88;4945563;27;98776;-77
2023/08/11 07:41:27;;;;;;;;;;;;;;;31.26;36.88;101325.47;4943221;27;97887;-77
2023/08/11 07:43:54;;;;;;;;;;;;;;;31.67;36.82;101330.88;4947874;27;98510;-69
2023/08/11 07:46:21;;;;;;;;;;;;;;;32.03;36.61;101323.50;4949001;28;98576;-68
2023/08/11 07:48:55;;;;;;;;;;;;;;;32.41;36.81;101327.56;4946044;27;98406;-77
2023/08/11 07:51:22;;;;;;;;;;;;;;;32.71;36.93;101324.41;4964423;27;99607;-69
2023/08/11 07:53:49;;;;;;;;;;;;;;;33.07;36.90;101324.41;4946461;27;99768;-69
2023/08/11 07:56:16;;;;;;;;;;;;;;;33.39;36.26;101329.91;4966400;27;98394;-70
2023/08/11 07:58:45;;;;;;;;;;;;;;;33.67;36.13;101320.66;4948603;27;99120;-76
2023/08/11 08:01:11;;;;;;;;;;;;;;;34.09;36.38;101329.28;4949714;27;98128;-76
2023/08/11 08:03:38;;;;;;;;;;;;;;;34.64;36.00;101322.91;4949379;27;98723;-77
2023/08/11 08:06:05;;;;;;;;;;;;;;;35.29;35.71;101321.13;4967636;27;99751;-69
2023/08/11 08:08:37;;;;;;;;;;;;;;;35.82;35.54;101314.09;4963137;27;98284;-76
2023/08/11 08:11:06;;;;;;;;;;;;;;;36.29;35.15;101317.03;4963573;27;98177;-70
2023/08/11 08:13:34;;;;;;;;;;;;;;;36.85;35.11;101317.34;4953337;27;99256;-70
2023/08/11 08:16:00;;;;;;;;;;;;;;;37.38;35.15;101316.78;4943549;27;98126;-76
2023/08/11 08:18:27;;;;;;;;;;;;;;;37.80;34.42;101310.28;4948198;27;99061;-70
2023/08/11 08:20:54;;;;;;;;;;;;;;;38.32;34.65;101317.16;4948606;27;98061;-76
2023/08/11 08:23:22;;;;;;;;;;;;;;;38.79;34.39;101317.66;4951629;27;98377;-70
2023/08/11 08:25:48;;;;;;;;;;;;;;;39.40;33.97;101310.34;4950891;27;98305;-76
2023/08/11 08:28:15;;;;;;;;;;;;;;;39.89;34.02;101321.41;4946424;27;98088;-76
2023/08/11 08:30:42;;;;;;;;;;;;;;;40.61;33.35;101311.47;4957092;27;98680;-76
2023/08/11 08:33:10;;;;;;;;;;;;;;;41.26;32.94;101307.16;4948049;27;98517;-76
2023/08/11 08:35:37;;;;;;;;;;;;;;;41.62;32.98;101314.31;4962749;27;101481;-76
2023/08/11 08:38:05;;;;;;;;;;;;;;;40.37;34.62;101313.06;4965035;27;98036;-76
2023/08/11 08:40:33;;;;;;;;;;;;;;;40.03;34.65;101302.44;4944284;27;98478;-69
2023/08/11 08:43:00;;;;;;;;;;;;;;;39.83;34.93;101306.28;4946342;27;98595;-70
2023/08/11 08:45:27;;;;;;;;;;;;;;;39.55;35.27;101313.56;4961105;27;100379;-70
2023/08/11 08:47:57;;;;;;;;;;;;;;;40.47;34.33;101312.69;4950070;27;98266;-76
2023/08/11 08:50:24;;;;;;;;;;;;;;;40.96;33.80;101306.59;4948052;27;98256;-76
2023/08/11 08:52:52;;;;;;;;;;;;;;;41.37;33.72;101313.19;4948372;27;98534;-70
2023/08/11 08:55:19;;;;;;;;;;;;;;;42.33;32.96;101319.22;4950358;27;98900;-76
2023/08/11 08:57:47;;;;;;;;;;;;;;;43.22;32.67;101317.44;4949824;27;98594;-70
2023/08/11 09:00:14;;;;;;;;;;;;;;;43.59;32.57;101306.84;4961410;27;101286;-76
2023/08/11 09:02:42;;;;;;;;;;;;;;;44.01;32.56;101300.38;4948422;27;98597;-77
2023/08/11 09:05:11;;;;;;;;;;;;;;;44.29;32.71;101303.88;4948524;27;98016;-70
2023/08/11 09:07:38;;;;;;;;;;;;;;;44.79;32.29;101292.81;4952003;27;98218;-76
2023/08/11 09:10:05;;;;;;;;;;;;;;;45.37;32.12;101296.22;4948465;27;98583;-76
2023/08/11 09:12:32;;;;;;;;;;;;;;;41.59;35.73;101281.31;4961619;27;98194;-70
2023/08/11 09:14:59;;;;;;;;;;;;;;;43.60;33.21;101280.81;4949692;27;98056;-69
2023/08/11 09:17:27;;;;;;;;;;;;;;;44.25;32.75;101284.16;4960966;27;98518;-69
2023/08/11 09:19:54;;;;;;;;;;;;;;;44.73;32.44;101278.50;4943716;27;98664;-69
2023/08/11 09:22:25;;;;;;;;;;;;;;;45.21;32.40;101278.38;4946224;27;98444;-76
2023/08/11 09:24:53;;;;;;;;;;;;;;;44.61;32.67;101273.03;4950179;27;98042;-69
2023/08/11 09:27:21;;;;;;;;;;;;;;;43.94;33.65;101275.19;4948136;27;99014;-77
2023/08/11 09:29:49;;;;;;;;;;;;;;;43.45;33.88;101267.78;4946157;27;98336;-70
2023/08/11 09:32:16;;;;;;;;;;;;;;;43.29;34.30;101264.03;4946288;27;99441;-69
2023/08/11 09:34:43;;;;;;;;;;;;;;;43.37;34.06;101268.09;4945297;27;99085;-77
2023/08/11 09:37:10;;;;;;;;;;;;;;;44.11;33.55;101276.38;4964860;27;98285;-76
2023/08/11 09:39:37;;;;;;;;;;;;;;;44.96;32.79;101271.19;4948435;27;98334;-70
2023/08/11 09:42:04;;;;;;;;;;;;;;;45.90;32.21;101276.16;4943799;27;99499;-69
2023/08/11 09:44:31;;;;;;;;;;;;;;;46.68;31.76;101275.69;4947424;27;98244;-77
2023/08/11 09:47:01;;;;;;;;;;;;;;;47.70;30.90;101269.69;4946131;27;98645;-77
2023/08/11 09:49:29;;;;;;;;;;;;;;;48.17;30.64;101264.53;4947456;27;100735;-69
2023/08/11 09:51:56;;;;;;;;;;;;;;;48.84;30.46;101264.03;4966800;27;98833;-69
2023/08/11 09:54:23;;;;;;;;;;;;;;;49.18;30.59;101259.16;4961864;27;99238;-69
2023/08/11 09:56:50;;;;;;;;;;;;;;;49.29;30.49;101250.56;4949660;27;98371;-77
2023/08/11 09:59:20;;;;;;;;;;;;;;;49.55;30.33;101244.56;4947624;27;98295;-76
2023/08/11 10:01:49;;;;;;;;;;;;;;;49.75;30.54;101254.16;4945907;27;99042;-70
2023/08/11 10:04:21;;;;;;;;;;;;;;;50.14;30.13;101248.31;4964521;27;98601;-76
2023/08/11 10:06:50;;;;;;;;;;;;;;;50.36;30.22;101253.22;4950252;28;98537;-69
2023/08/11 10:09:17;;;;;;;;;;;;;;;49.05;31.37;101245.34;4923234;28;98333;-70
2023/08/11 10:11:45;;;;;;;;;;;;;;;46.19;33.44;101240.34;4935512;28;100048;-69
2023/08/11 10:14:13;;;;;;;;;;;;;;;47.90;31.82;101251.63;4927443;28;98267;-69
2023/08/11 10:16:41;;;;;;;;;;;;;;;44.96;34.65;101239.13;4940584;28;99030;-77
2023/08/11 10:19:07;;;;;;;;;;;;;;;42.74;35.81;101244.25;4945172;28;98567;-77
2023/08/11 10:21:35;;;;;;;;;;;;;;;41.90;36.42;101245.34;4926826;28;98158;-69
2023/08/11 10:24:02;;;;;;;;;;;;;;;42.68;35.22;101251.78;4930893;28;98124;-69
2023/08/11 10:26:31;;;;;;;;;;;;;;;42.47;35.32;101253.50;4941248;28;98600;-69
2023/08/11 10:28:57;;;;;;;;;;;;;;;44.27;33.31;101258.16;4925520;28;98431;-68
2023/08/11 10:31:25;;;;;;;;;;;;;;;44.67;33.04;101254.88;4926423;28;98048;-69
2023/08/11 10:33:52;;;;;;;;;;;;;;;45.17;32.61;101259.97;4924795;28;98480;-77
2023/08/11 10:36:23;;;;;;;;;;;;;;;45.71;32.51;101247.16;4928325;28;98489;-76
2023/08/11 10:39:05;;;;;;;;;;;;;;;44.21;33.63;101251.53;4929247;28;100318;-76
2023/08/11 10:41:32;;;;;;;;;;;;;;;45.27;32.68;101252.88;4943478;28;98233;-69
2023/08/11 10:44:01;;;;;;;;;;;;;;;45.62;32.38;101263.56;4929015;28;99750;-77
2023/08/11 10:46:29;;;;;;;;;;;;;;;41.92;35.50;101236.38;4937611;28;98396;-69
2023/08/11 10:48:59;;;;;;;;;;;;;;;40.07;37.39;101233.38;4929220;28;98348;-77
2023/08/11 10:51:33;;;;;;;;;;;;;;;40.31;36.42;101239.44;4928560;28;98719;-76
2023/08/11 10:54:09;;;;;;;;;;;;;;;42.21;34.48;101243.66;4947146;28;99712;-76
2023/08/11 10:56:38;;;;;;;;;;;;;;;42.99;33.41;101251.59;4960072;28;98891;-77
2023/08/11 10:59:22;;;;;;;;;;;;;;;43.43;33.07;101247.59;4924338;28;97995;-77
2023/08/11 11:01:53;;;;;;;;;;;;;;;43.75;33.09;101241.22;4953456;28;98747;-68
2023/08/11 11:04:20;;;;;;;;;;;;;;;43.87;33.07;101233.00;4926439;28;98267;-77
2023/08/11 11:06:47;;;;;;;;;;;;;;;44.26;32.79;101234.66;4932821;28;100350;-77
2023/08/11 11:09:14;;;;;;;;;;;;;;;44.58;32.43;101232.97;4973124;27;98155;-69
2023/08/11 11:11:40;;;;;;;;;;;;;;;44.63;32.38;101237.19;4943994;28;97926;-68
2023/08/11 11:14:07;;;;;;;;;;;;;;;44.65;32.61;101237.53;4942141;28;98090;-77
2023/08/11 11:16:34;;;;;;;;;;;;;;;44.52;32.46;101234.91;4921883;28;100100;-77
2023/08/11 11:19:01;;;;;;;;;;;;;;;44.34;32.86;101227.34;4921177;28;98391;-68
2023/08/11 11:21:27;;;;;;;;;;;;;;;44.11;32.97;101228.09;4925447;28;99273;-77
2023/08/11 11:23:54;;;;;;;;;;;;;;;43.76;33.39;101219.28;4928707;28;98155;-77
2023/08/11 11:26:24;;;;;;;;;;;;;;;43.37;33.61;101219.91;4933966;28;99830;-78
2023/08/11 11:28:52;;;;;;;;;;;;;;;42.89;34.13;101210.38;4947138;28;98091;-69
2023/08/11 11:31:19;;;;;;;;;;;;;;;42.34;34.40;101205.50;4926587;28;98617;-78
2023/08/11 11:33:46;;;;;;;;;;;;;;;41.86;34.84;101213.56;4929912;28;98131;-69
2023/08/11 11:36:13;;;;;;;;;;;;;;;41.51;34.99;101212.16;4929251;28;98350;-69
2023/08/11 11:38:41;;;;;;;;;;;;;;;41.17;35.12;101208.97;4928047;28;98748;-78
2023/08/11 11:41:15;;;;;;;;;;;;;;;40.99;35.19;101214.50;4933185;28;97891;-78
2023/08/11 11:43:43;;;;;;;;;;;;;;;40.93;35.13;101213.50;4961234;28;99214;-78
2023/08/11 11:46:19;;;;;;;;;;;;;;;40.97;35.09;101200.03;4934654;28;100253;-69
2023/08/11 11:48:52;;;;;;;;;;;;;;;40.87;35.16;101210.44;4933332;28;98233;-69
2023/08/11 11:51:26;;;;;;;;;;;;;;;40.72;34.76;101201.72;4926626;28;98431;-77
2023/08/11 11:53:55;;;;;;;;;;;;;;;40.57;34.93;101209.13;4948440;28;98156;-78
2023/08/11 11:56:25;;;;;;;;;;;;;;;40.34;35.18;101207.50;4929625;28;98724;-78
2023/08/11 11:58:52;;;;;;;;;;;;;;;40.13;35.14;101206.19;4925866;28;98254;-69
2023/08/11 12:01:21;;;;;;;;;;;;;;;39.90;35.39;101207.34;4920741;28;98455;-78
2023/08/11 12:03:50;;;;;;;;;;;;;;;39.74;35.44;101205.44;4965290;28;98370;-78
2023/08/11 12:06:18;;;;;;;;;;;;;;;39.61;35.60;101201.78;4952596;27;99146;-77
2023/08/11 12:08:51;;;;;;;;;;;;;;;39.50;35.66;101193.66;4969307;27;97936;-78
2023/08/11 12:11:30;;;;;;;;;;;;;;;39.38;35.62;101196.47;4967387;27;98723;-68
2023/08/11 12:13:58;;;;;;;;;;;;;;;39.20;35.93;101194.94;4952904;27;100607;-78
2023/08/11 12:16:26;;;;;;;;;;;;;;;39.07;35.67;101194.16;4949364;27;98445;-71
2023/08/11 12:18:52;;;;;;;;;;;;;;;38.96;35.91;101194.44;4951285;27;99389;-69
2023/08/11 12:21:20;;;;;;;;;;;;;;;38.90;35.77;101199.03;4945651;27;98585;-69
2023/08/11 12:23:48;;;;;;;;;;;;;;;38.84;36.19;101194.41;4959691;27;98358;-79
2023/08/11 12:26:15;;;;;;;;;;;;;;;38.83;36.02;101192.81;4961010;27;98587;-79
2023/08/11 12:28:42;;;;;;;;;;;;;;;38.89;35.65;101191.84;4962700;27;101673;-78
2023/08/11 12:31:08;;;;;;;;;;;;;;;38.92;35.65;101193.75;4943158;27;98271;-77
2023/08/11 12:33:37;;;;;;;;;;;;;;;38.82;35.71;101192.03;4951480;27;98218;-78
2023/08/11 12:36:04;;;;;;;;;;;;;;;38.74;35.70;101185.78;4947320;27;98442;-70
2023/08/11 12:38:33;;;;;;;;;;;;;;;38.65;36.14;101185.63;4942613;27;98525;-76
2023/08/11 12:41:00;;;;;;;;;;;;;;;38.45;36.02;101182.19;4937543;27;98811;-69